createdAt,value
2018-10-07T00:01:08.412Z,3.53
2018-10-07T00:03:36.940Z,3.70
2018-10-07T00:06:05.442Z,3.33
2018-10-07T00:08:33.945Z,3.30
2018-10-07T00:11:02.456Z,3.27
2018-10-07T00:13:30.969Z,3.37
2018-10-07T00:15:59.442Z,3.43
2018-10-07T00:18:27.999Z,3.33
2018-10-07T00:20:56.486Z,3.30
2018-10-07T00:23:24.972Z,3.33
2018-10-07T00:25:53.466Z,3.60
2018-10-07T00:28:21.968Z,3.40
2018-10-07T00:30:50.452Z,3.60
2018-10-07T00:33:18.933Z,3.37
2018-10-07T00:35:47.420Z,3.37
2018-10-07T00:38:15.910Z,3.73
2018-10-07T00:40:44.383Z,3.67
2018-10-07T00:43:12.883Z,3.37
2018-10-07T00:45:41.382Z,3.50
2018-10-07T00:48:09.876Z,3.07
2018-10-07T00:50:38.457Z,3.03
2018-10-07T00:53:06.995Z,3.60
2018-10-07T00:55:35.482Z,3.47
2018-10-07T00:58:03.951Z,3.50
2018-10-07T01:00:32.447Z,3.70
2018-10-07T01:03:00.935Z,3.63
2018-10-07T01:05:29.420Z,3.33
2018-10-07T01:07:57.907Z,3.53
2018-10-07T01:10:26.405Z,3.67
2018-10-07T01:12:54.911Z,3.40
2018-10-07T01:15:23.427Z,3.67
2018-10-07T01:17:51.908Z,3.27
2018-10-07T01:20:20.398Z,3.37
2018-10-07T01:22:48.917Z,3.60
2018-10-07T01:25:17.413Z,3.37
2018-10-07T01:27:45.904Z,3.57
2018-10-07T01:30:14.439Z,3.63
2018-10-07T01:32:42.915Z,3.80
2018-10-07T01:35:11.394Z,3.40
2018-10-07T01:37:39.897Z,3.47
2018-10-07T01:40:08.397Z,3.40
2018-10-07T01:42:36.881Z,3.50
2018-10-07T01:45:05.474Z,3.43
2018-10-07T01:47:34.001Z,3.53
2018-10-07T01:50:02.501Z,3.90
2018-10-07T01:52:30.995Z,3.40
2018-10-07T01:54:59.478Z,3.60
2018-10-07T01:57:27.956Z,3.60
2018-10-07T01:59:56.445Z,3.63
2018-10-07T02:02:25.056Z,3.70
2018-10-07T02:04:53.672Z,3.73
2018-10-07T02:07:22.236Z,3.40
2018-10-07T02:09:50.762Z,3.63
2018-10-07T02:12:19.235Z,3.63
2018-10-07T02:14:47.742Z,3.57
2018-10-07T02:17:16.244Z,3.90
2018-10-07T02:19:44.729Z,3.73
2018-10-07T02:22:13.225Z,3.63
2018-10-07T02:24:41.717Z,3.83
2018-10-07T02:27:10.195Z,3.50
2018-10-07T02:29:38.683Z,3.60
2018-10-07T02:32:07.181Z,3.53
2018-10-07T02:34:35.850Z,3.70
2018-10-07T02:37:04.314Z,3.83
2018-10-07T02:39:32.823Z,3.90
2018-10-07T02:42:01.303Z,3.60
2018-10-07T02:44:29.786Z,3.67
2018-10-07T02:46:58.285Z,3.80
2018-10-07T02:49:26.767Z,3.90
2018-10-07T02:51:55.292Z,3.90
2018-10-07T02:54:24.119Z,4.13
2018-10-07T02:56:52.664Z,4.03
2018-10-07T02:59:21.154Z,3.70
2018-10-07T03:01:49.683Z,3.60
2018-10-07T03:04:18.175Z,3.87
2018-10-07T03:06:46.652Z,3.90
2018-10-07T03:09:15.144Z,3.80
2018-10-07T03:11:43.632Z,3.80
2018-10-07T03:14:12.114Z,4.10
2018-10-07T03:16:40.604Z,3.80
2018-10-07T03:19:09.097Z,3.80
2018-10-07T03:21:37.576Z,3.83
2018-10-07T03:24:06.059Z,3.70
2018-10-07T03:26:34.638Z,3.93
2018-10-07T03:29:03.122Z,3.70
2018-10-07T03:31:31.608Z,3.80
2018-10-07T03:34:00.091Z,3.93
2018-10-07T03:36:28.612Z,3.93
2018-10-07T03:38:57.092Z,3.80
2018-10-07T03:41:25.650Z,3.83
2018-10-07T03:43:54.137Z,3.80
2018-10-07T03:46:22.626Z,3.77
2018-10-07T03:48:51.111Z,3.50
2018-10-07T03:51:19.596Z,3.63
2018-10-07T03:53:48.084Z,4.37
2018-10-07T03:56:16.601Z,4.27
2018-10-07T03:58:45.085Z,3.90
2018-10-07T04:01:13.579Z,4.10
2018-10-07T04:03:42.340Z,4.03
2018-10-07T04:06:10.799Z,3.63
2018-10-07T04:08:39.289Z,4.23
2018-10-07T04:11:07.855Z,3.87
2018-10-07T04:13:36.369Z,4.07
2018-10-07T04:16:04.874Z,4.13
2018-10-07T04:18:33.349Z,3.67
2018-10-07T04:21:01.844Z,4.50
2018-10-07T04:23:30.389Z,4.10
2018-10-07T04:25:58.878Z,4.03
2018-10-07T04:28:27.358Z,3.93
2018-10-07T04:30:55.824Z,3.83
2018-10-07T04:33:24.308Z,4.20
2018-10-07T04:35:52.831Z,3.67
2018-10-07T04:38:21.331Z,4.03
2018-10-07T04:40:49.820Z,4.30
2018-10-07T04:43:18.321Z,4.00
2018-10-07T04:45:46.789Z,4.03
2018-10-07T04:48:15.261Z,4.30
2018-10-07T04:50:43.742Z,3.60
2018-10-07T04:53:12.231Z,4.00
2018-10-07T04:55:40.729Z,4.20
2018-10-07T04:58:09.212Z,3.70
2018-10-07T05:00:37.710Z,4.13
2018-10-07T05:03:06.257Z,4.10
2018-10-07T05:05:34.736Z,3.67
2018-10-07T05:08:03.248Z,3.67
2018-10-07T05:10:43.881Z,3.70
2018-10-07T05:13:12.759Z,3.90
2018-10-07T05:15:41.643Z,3.87
2018-10-07T05:18:10.535Z,3.93
2018-10-07T05:20:39.023Z,4.17
2018-10-07T05:23:07.513Z,3.90
2018-10-07T05:25:36.048Z,4.40
2018-10-07T05:28:04.889Z,4.70
2018-10-07T05:30:33.418Z,4.40
2018-10-07T05:33:01.912Z,4.63
2018-10-07T05:35:30.416Z,4.00
2018-10-07T05:37:58.908Z,4.07
2018-10-07T05:40:27.396Z,3.93
2018-10-07T05:42:55.886Z,4.40
2018-10-07T05:45:24.398Z,3.97
2018-10-07T05:47:53.059Z,4.20
2018-10-07T05:50:21.701Z,4.20
2018-10-07T05:52:50.166Z,4.30
2018-10-07T05:55:18.691Z,3.67
2018-10-07T05:57:47.391Z,4.37
2018-10-07T06:00:17.280Z,4.20
2018-10-07T06:02:47.200Z,4.10
2018-10-07T06:05:16.158Z,4.30
2018-10-07T06:07:44.972Z,4.50
2018-10-07T06:10:13.468Z,4.17
2018-10-07T06:12:41.947Z,4.10
2018-10-07T06:15:26.640Z,4.23
2018-10-07T06:17:55.115Z,4.07
2018-10-07T06:20:23.599Z,4.27
2018-10-07T06:22:52.071Z,3.53
2018-10-07T06:25:20.565Z,4.10
2018-10-07T06:27:49.071Z,4.13
2018-10-07T06:30:17.659Z,4.40
2018-10-07T06:32:46.144Z,4.00
2018-10-07T06:35:14.614Z,4.13
2018-10-07T06:37:43.092Z,4.20
2018-10-07T06:40:11.926Z,4.20
2018-10-07T06:42:40.392Z,4.17
2018-10-07T06:45:08.881Z,4.10
2018-10-07T06:47:37.419Z,3.90
2018-10-07T06:50:05.899Z,4.07
2018-10-07T06:52:34.371Z,3.70
2018-10-07T06:55:02.839Z,4.00
2018-10-07T06:57:31.604Z,3.97
2018-10-07T07:00:00.578Z,4.23
2018-10-07T07:02:29.279Z,3.93
2018-10-07T07:04:57.783Z,3.90
2018-10-07T07:07:26.610Z,4.03
2018-10-07T07:09:55.103Z,3.90
2018-10-07T07:12:23.816Z,3.77
2018-10-07T07:14:52.279Z,4.37
2018-10-07T07:17:20.764Z,3.77
2018-10-07T07:19:49.244Z,3.90
2018-10-07T07:22:17.728Z,4.33
2018-10-07T07:24:46.191Z,3.83
2018-10-07T07:27:14.676Z,4.10
2018-10-07T07:29:43.165Z,4.27
2018-10-07T07:32:11.640Z,4.00
2018-10-07T07:34:40.118Z,3.80
2018-10-07T07:37:08.590Z,4.30
2018-10-07T07:39:37.063Z,3.80
2018-10-07T07:42:05.530Z,4.00
2018-10-07T07:44:33.991Z,4.17
2018-10-07T07:47:02.460Z,4.00
2018-10-07T07:49:30.948Z,4.67
2018-10-07T07:51:59.454Z,4.33
2018-10-07T07:54:27.906Z,4.20
2018-10-07T07:56:56.453Z,4.30
2018-10-07T07:59:24.931Z,3.90
2018-10-07T08:01:53.409Z,4.27
2018-10-07T08:04:21.869Z,4.10
2018-10-07T08:06:50.531Z,4.00
2018-10-07T08:09:19.031Z,3.90
2018-10-07T08:11:47.503Z,4.10
2018-10-07T08:14:15.976Z,4.07
2018-10-07T08:16:44.466Z,4.10
2018-10-07T08:19:12.923Z,4.17
2018-10-07T08:21:41.417Z,4.23
2018-10-07T08:24:09.887Z,4.07
2018-10-07T08:26:38.371Z,4.23
2018-10-07T08:29:06.936Z,4.03
2018-10-07T08:31:35.413Z,4.07
2018-10-07T08:34:03.897Z,3.63
2018-10-07T08:36:32.359Z,3.87
2018-10-07T08:39:00.831Z,4.10
2018-10-07T08:41:29.304Z,3.90
2018-10-07T08:43:57.790Z,4.00
2018-10-07T08:46:26.268Z,3.80
2018-10-07T08:48:54.744Z,3.90
2018-10-07T08:51:23.227Z,3.77
2018-10-07T08:53:51.737Z,4.57
2018-10-07T08:56:20.234Z,3.73
2018-10-07T08:58:48.679Z,4.07
2018-10-07T09:01:17.162Z,4.20
2018-10-07T09:03:45.679Z,4.03
2018-10-07T09:06:14.159Z,4.37
2018-10-07T09:08:42.648Z,3.97
2018-10-07T09:11:11.124Z,4.27
2018-10-07T09:13:39.602Z,4.17
2018-10-07T09:16:08.062Z,4.20
2018-10-07T09:18:36.538Z,3.90
2018-10-07T09:21:05.071Z,3.87
2018-10-07T09:23:33.711Z,4.17
2018-10-07T09:26:02.264Z,4.30
2018-10-07T09:28:30.773Z,4.10
2018-10-07T09:30:59.267Z,3.53
2018-10-07T09:33:27.751Z,4.10
2018-10-07T09:35:56.222Z,4.27
2018-10-07T09:38:24.713Z,4.00
2018-10-07T09:40:53.189Z,3.77
2018-10-07T09:43:22.504Z,4.27
2018-10-07T09:45:51.044Z,3.93
2018-10-07T09:48:19.543Z,3.90
2018-10-07T09:50:48.011Z,3.80
2018-10-07T09:53:16.490Z,3.80
2018-10-07T09:55:45.023Z,4.00
2018-10-07T09:58:13.463Z,4.10
2018-10-07T10:00:42.363Z,4.50
2018-10-07T10:03:12.095Z,3.80
2018-10-07T10:05:40.675Z,3.93
2018-10-07T10:08:09.757Z,4.20
2018-10-07T10:10:38.226Z,3.90
2018-10-07T10:13:06.799Z,4.30
2018-10-07T10:15:35.291Z,3.83
2018-10-07T10:18:07.153Z,3.67
2018-10-07T10:20:53.019Z,3.50
2018-10-07T10:24:33.070Z,4.23
2018-10-07T10:27:07.783Z,3.93
2018-10-07T10:29:54.496Z,3.93
2018-10-07T10:32:31.845Z,3.80
2018-10-07T10:35:11.611Z,3.80
2018-10-07T10:38:17.970Z,3.90
2018-10-07T10:40:53.156Z,3.73
2018-10-07T10:43:28.170Z,3.73
2018-10-07T10:46:01.442Z,3.63
2018-10-07T10:48:36.444Z,3.93
2018-10-07T10:52:19.250Z,3.60
2018-10-07T10:55:31.463Z,3.77
2018-10-07T10:58:02.956Z,3.93
2018-10-07T11:00:41.547Z,3.77
2018-10-07T11:03:18.553Z,3.63
2018-10-07T11:05:55.746Z,4.10
2018-10-07T11:08:47.914Z,3.60
2018-10-07T11:11:20.202Z,3.93
2018-10-07T11:14:58.358Z,3.60
2018-10-07T11:17:38.402Z,4.00
2018-10-07T11:20:17.425Z,3.33
2018-10-07T11:25:37.543Z,3.67
2018-10-07T11:28:48.412Z,3.57
2018-10-07T11:31:27.718Z,3.73
2018-10-07T11:34:07.490Z,3.90
2018-10-07T11:36:54.446Z,3.60
2018-10-07T11:39:34.009Z,3.50
2018-10-07T11:42:09.151Z,3.40
2018-10-07T11:45:18.223Z,3.60
2018-10-07T11:48:01.111Z,3.67
2018-10-07T11:50:44.855Z,3.70
2018-10-07T11:53:25.763Z,3.57
2018-10-07T11:55:54.243Z,3.20
2018-10-07T11:58:22.799Z,3.80
2018-10-07T12:00:51.284Z,3.50
2018-10-07T12:03:19.764Z,4.13
2018-10-07T12:05:48.248Z,3.47
2018-10-07T12:08:16.763Z,3.63
2018-10-07T12:10:45.246Z,3.40
2018-10-07T12:13:13.714Z,3.67
2018-10-07T12:15:42.218Z,3.33
2018-10-07T12:18:10.715Z,3.33
2018-10-07T12:20:39.191Z,3.40
2018-10-07T12:23:07.737Z,3.17
2018-10-07T12:25:36.331Z,3.60
2018-10-07T12:28:04.809Z,3.60
2018-10-07T12:30:33.286Z,3.30
2018-10-07T12:33:01.757Z,3.50
2018-10-07T12:35:30.514Z,3.33
2018-10-07T12:37:59.014Z,3.13
2018-10-07T12:40:27.508Z,3.47
2018-10-07T12:42:56.007Z,3.77
2018-10-07T12:45:24.486Z,3.63
2018-10-07T12:47:52.977Z,3.53
2018-10-07T12:50:21.451Z,3.27
2018-10-07T12:52:50.767Z,3.27
2018-10-07T12:55:19.235Z,3.27
2018-10-07T12:57:47.709Z,3.17
2018-10-07T13:00:16.169Z,3.70
2018-10-07T13:02:44.658Z,3.43
2018-10-07T13:05:13.144Z,3.30
2018-10-07T13:07:41.636Z,3.33
2018-10-07T13:10:10.096Z,3.40
2018-10-07T13:12:38.907Z,3.57
2018-10-07T13:15:07.370Z,3.37
2018-10-07T13:17:35.894Z,3.60
2018-10-07T13:20:04.523Z,3.30
2018-10-07T13:22:32.999Z,3.30
2018-10-07T13:25:01.479Z,3.40
2018-10-07T13:27:30.169Z,3.30
2018-10-07T13:29:58.655Z,3.20
2018-10-07T13:32:27.135Z,3.70
2018-10-07T13:34:55.616Z,3.67
2018-10-07T13:37:24.118Z,3.20
2018-10-07T13:39:52.635Z,3.23
2018-10-07T13:42:21.120Z,3.10
2018-10-07T13:44:49.642Z,2.90
2018-10-07T13:47:18.114Z,3.30
2018-10-07T13:49:46.597Z,3.40
2018-10-07T13:52:15.112Z,3.37
2018-10-07T13:54:43.606Z,3.07
2018-10-07T13:57:12.139Z,3.13
2018-10-07T13:59:40.628Z,3.40
2018-10-07T14:02:09.098Z,3.37
2018-10-07T14:04:37.578Z,3.33
2018-10-07T14:07:06.045Z,3.30
2018-10-07T14:09:34.517Z,3.30
2018-10-07T14:12:03.014Z,3.23
2018-10-07T14:14:31.515Z,3.27
2018-10-07T14:16:59.975Z,3.40
2018-10-07T14:19:28.444Z,3.20
2018-10-07T14:21:56.922Z,3.27
2018-10-07T14:24:25.405Z,3.37
2018-10-07T14:26:53.971Z,3.37
2018-10-07T14:29:22.451Z,3.00
2018-10-07T14:31:50.927Z,3.17
2018-10-07T14:34:19.414Z,2.93
2018-10-07T14:36:48.024Z,3.27
2018-10-07T14:39:16.543Z,3.40
2018-10-07T14:41:45.010Z,3.37
2018-10-07T14:44:13.480Z,3.20
2018-10-07T14:46:41.957Z,3.40
2018-10-07T14:49:10.726Z,3.07
2018-10-07T14:51:39.251Z,2.90
2018-10-07T14:54:07.714Z,3.27
2018-10-07T14:56:36.195Z,3.17
2018-10-07T14:59:04.678Z,3.30
2018-10-07T15:01:33.156Z,3.33
2018-10-07T15:04:01.648Z,3.27
2018-10-07T15:06:30.128Z,3.30
2018-10-07T15:08:58.631Z,3.20
2018-10-07T15:11:27.215Z,3.17
2018-10-07T15:13:55.690Z,3.37
2018-10-07T15:16:24.275Z,3.33
2018-10-07T15:18:52.753Z,2.80
2018-10-07T15:21:21.209Z,3.30
2018-10-07T15:23:49.783Z,3.00
2018-10-07T15:26:18.244Z,3.17
2018-10-07T15:28:46.732Z,3.30
2018-10-07T15:31:15.269Z,3.03
2018-10-07T15:33:43.763Z,3.20
2018-10-07T15:36:12.242Z,3.47
2018-10-07T15:38:41.084Z,3.40
2018-10-07T15:41:09.612Z,3.20
2018-10-07T15:43:38.578Z,3.47
2018-10-07T15:46:07.159Z,2.97
2018-10-07T15:48:35.794Z,3.17
2018-10-07T15:51:04.291Z,3.00
2018-10-07T15:53:32.790Z,3.10
2018-10-07T15:56:01.272Z,3.20
2018-10-07T15:58:29.756Z,3.27
2018-10-07T16:00:58.292Z,3.67
2018-10-07T16:03:26.774Z,3.60
2018-10-07T16:05:55.635Z,3.50
2018-10-07T16:08:24.124Z,3.37
2018-10-07T16:10:52.599Z,3.27
2018-10-07T16:13:21.135Z,3.60
2018-10-07T16:15:49.602Z,3.27
2018-10-07T16:18:18.106Z,3.37
2018-10-07T16:20:46.587Z,3.00
2018-10-07T16:23:15.136Z,3.00
2018-10-07T16:25:43.662Z,3.43
2018-10-07T16:28:12.143Z,3.20
2018-10-07T16:30:40.627Z,3.30
2018-10-07T16:33:09.116Z,3.57
2018-10-07T16:35:37.621Z,3.13
2018-10-07T16:38:06.396Z,3.33
2018-10-07T16:40:34.879Z,3.30
2018-10-07T16:43:03.353Z,3.93
2018-10-07T16:45:31.855Z,3.97
2018-10-07T16:48:00.334Z,3.80
2018-10-07T16:50:28.857Z,3.50
2018-10-07T16:52:57.341Z,3.20
2018-10-07T16:55:25.815Z,3.13
2018-10-07T16:57:54.505Z,3.00
2018-10-07T17:00:22.995Z,3.43
2018-10-07T17:02:51.492Z,3.73
2018-10-07T17:05:19.996Z,3.53
2018-10-07T17:07:48.546Z,3.43
2018-10-07T17:10:17.054Z,3.83
2018-10-07T17:12:45.641Z,3.83
2018-10-07T17:15:14.078Z,3.80
2018-10-07T17:17:42.545Z,3.47
2018-10-07T17:20:11.083Z,3.80
2018-10-07T17:22:39.598Z,3.40
2018-10-07T17:25:08.083Z,3.60
2018-10-07T17:27:36.579Z,3.20
2018-10-07T17:30:05.061Z,3.40
2018-10-07T17:32:33.580Z,3.30
2018-10-07T17:35:02.075Z,3.67
2018-10-07T17:37:30.550Z,3.20
2018-10-07T17:39:59.055Z,3.30
2018-10-07T17:42:27.602Z,3.40
2018-10-07T17:44:56.067Z,3.30
2018-10-07T17:47:24.542Z,3.30
2018-10-07T17:49:53.010Z,3.50
2018-10-07T17:52:21.763Z,3.63
2018-10-07T17:54:50.238Z,3.83
2018-10-07T17:57:18.796Z,3.53
2018-10-07T17:59:47.279Z,3.67
2018-10-07T18:02:15.821Z,3.70
2018-10-07T18:04:44.298Z,3.57
2018-10-07T18:07:12.771Z,3.40
2018-10-07T18:09:41.251Z,3.57
2018-10-07T18:12:09.742Z,4.10
2018-10-07T18:14:38.224Z,4.00
2018-10-07T18:17:06.712Z,3.77
2018-10-07T18:19:35.238Z,3.57
2018-10-07T18:22:03.720Z,3.47
2018-10-07T18:24:32.186Z,3.57
2018-10-07T18:27:00.676Z,3.40
2018-10-07T18:29:29.147Z,3.53
2018-10-07T18:31:57.660Z,3.70
2018-10-07T18:34:26.210Z,3.73
2018-10-07T18:36:54.673Z,3.60
2018-10-07T18:39:23.246Z,3.43
2018-10-07T18:41:51.759Z,3.60
2018-10-07T18:44:20.287Z,3.30
2018-10-07T18:46:48.885Z,3.40
2018-10-07T18:49:17.416Z,3.50
2018-10-07T18:51:46.635Z,3.37
2018-10-07T18:54:15.206Z,3.60
2018-10-07T18:56:43.755Z,3.50
2018-10-07T18:59:12.280Z,3.30
2018-10-07T19:01:40.909Z,3.20
2018-10-07T19:04:09.484Z,3.37
2018-10-07T19:06:38.073Z,3.20
2018-10-07T19:09:08.984Z,3.73
2018-10-07T19:11:37.556Z,4.10
2018-10-07T19:14:06.216Z,3.93
2018-10-07T19:16:34.856Z,4.20
2018-10-07T19:19:03.388Z,3.80
2018-10-07T19:21:31.952Z,3.63
2018-10-07T19:24:00.464Z,4.13
2018-10-07T19:26:28.997Z,4.30
2018-10-07T19:28:57.551Z,3.87
2018-10-07T19:31:26.158Z,4.60
2018-10-07T19:33:54.704Z,4.10
2018-10-07T19:36:23.261Z,4.50
2018-10-07T19:38:51.822Z,4.40
2018-10-07T19:41:20.331Z,4.20
2018-10-07T19:43:49.491Z,4.37
2018-10-07T19:46:18.118Z,4.03
2018-10-07T19:48:46.739Z,4.43
2018-10-07T19:51:15.359Z,4.77
2018-10-07T19:53:43.976Z,8.00
2018-10-07T19:56:12.677Z,8.23
2018-10-07T19:58:41.245Z,7.13
2018-10-07T20:01:09.845Z,6.57
2018-10-07T20:03:38.391Z,6.40
2018-10-07T20:06:07.076Z,5.20
2018-10-07T20:08:35.599Z,5.33
2018-10-07T20:11:04.142Z,5.53
2018-10-07T20:13:32.770Z,5.47
2018-10-07T20:16:01.357Z,5.20
2018-10-07T20:18:30.025Z,5.10
2018-10-07T20:20:58.711Z,4.97
2018-10-07T20:23:27.367Z,5.13
2018-10-07T20:25:55.943Z,4.87
2018-10-07T20:28:24.614Z,4.83
2018-10-07T20:30:53.156Z,4.90
2018-10-07T20:33:21.848Z,4.77
2018-10-07T20:35:50.415Z,4.13
2018-10-07T20:38:19.001Z,4.80
2018-10-07T20:40:47.787Z,4.70
2018-10-07T20:43:16.220Z,4.17
2018-10-07T20:45:44.898Z,4.43
2018-10-07T20:48:13.491Z,4.17
2018-10-07T20:50:42.073Z,4.33
2018-10-07T20:53:10.658Z,4.63
2018-10-07T20:55:39.244Z,4.33
2018-10-07T20:58:07.994Z,4.37
2018-10-07T21:00:36.721Z,3.80
2018-10-07T21:03:05.552Z,4.03
2018-10-07T21:05:34.090Z,4.40
2018-10-07T21:08:02.647Z,4.27
2018-10-07T21:10:31.231Z,4.33
2018-10-07T21:12:59.782Z,4.00
2018-10-07T21:15:28.356Z,4.63
2018-10-07T21:17:56.947Z,4.00
2018-10-07T21:20:25.567Z,4.03
2018-10-07T21:22:54.165Z,4.00
2018-10-07T21:25:22.693Z,3.83
2018-10-07T21:27:51.291Z,4.53
2018-10-07T21:30:19.811Z,4.30
2018-10-07T21:32:48.338Z,3.70
2018-10-07T21:35:16.906Z,4.33
2018-10-07T21:37:45.483Z,3.73
2018-10-07T21:40:15.172Z,3.87
2018-10-07T21:42:43.762Z,4.27
2018-10-07T21:45:12.339Z,3.97
2018-10-07T21:47:40.926Z,4.03
2018-10-07T21:50:09.482Z,4.27
2018-10-07T21:52:38.055Z,3.80
2018-10-07T21:55:06.624Z,4.10
2018-10-07T21:57:35.200Z,4.20
2018-10-07T22:00:03.819Z,3.87
2018-10-07T22:02:32.430Z,4.20
2018-10-07T22:05:00.964Z,4.23
2018-10-07T22:07:29.550Z,3.57
2018-10-07T22:09:58.115Z,3.63
2018-10-07T22:12:26.686Z,3.60
2018-10-07T22:14:55.243Z,4.23
2018-10-07T22:17:23.855Z,3.73
2018-10-07T22:19:52.397Z,3.90
2018-10-07T22:22:20.964Z,3.80
2018-10-07T22:24:49.557Z,3.97
2018-10-07T22:27:18.161Z,4.00
2018-10-07T22:29:46.722Z,4.27
2018-10-07T22:32:15.303Z,3.60
2018-10-07T22:34:43.898Z,3.90
2018-10-07T22:37:12.495Z,4.00
2018-10-07T22:39:41.036Z,3.70
2018-10-07T22:42:09.639Z,3.93
2018-10-07T22:44:38.266Z,3.77
2018-10-07T22:47:06.861Z,4.10
2018-10-07T22:49:35.391Z,3.90
2018-10-07T22:52:04.169Z,3.80
2018-10-07T22:54:32.763Z,3.93
2018-10-07T22:57:01.414Z,3.97
2018-10-07T22:59:30.101Z,4.30
2018-10-07T23:01:58.794Z,3.73
2018-10-07T23:04:27.343Z,3.43
2018-10-07T23:06:55.936Z,3.90
2018-10-07T23:09:24.593Z,3.60
2018-10-07T23:11:53.255Z,4.10
2018-10-07T23:14:21.798Z,4.10
2018-10-07T23:16:50.458Z,3.40
2018-10-07T23:19:19.083Z,3.10
2018-10-07T23:21:47.797Z,3.30
2018-10-07T23:24:16.358Z,3.70
2018-10-07T23:26:45.471Z,3.70
2018-10-07T23:29:14.062Z,3.93
2018-10-07T23:31:42.588Z,4.07
2018-10-07T23:34:11.138Z,4.17
2018-10-07T23:36:39.723Z,4.33
2018-10-07T23:39:09.928Z,4.03
2018-10-07T23:41:38.538Z,4.20
2018-10-07T23:44:07.683Z,3.87
2018-10-07T23:46:36.244Z,4.17
2018-10-07T23:49:04.924Z,4.13
2018-10-07T23:51:34.504Z,3.60
2018-10-07T23:54:02.973Z,4.37
2018-10-07T23:56:31.568Z,3.90
2018-10-07T23:59:00.150Z,4.60
